sensor_id;sensor_type;location;lat;lon;timestamp;P1;durP1;ratioP1;P2;durP2;ratioP2
13743;SDS011;6943;52.368;9.966;2023-09-18T00:00:25;9.70;;;7.87;;
13743;SDS011;6943;52.368;9.966;2023-09-18T00:02:50;7.70;;;7.10;;
13743;SDS011;6943;52.368;9.966;2023-09-18T00:05:16;7.50;;;6.80;;
13743;SDS011;6943;52.368;9.966;2023-09-18T00:07:42;8.20;;;7.40;;
13743;SDS011;6943;52.368;9.966;2023-09-18T00:10:09;7.50;;;6.80;;
13743;SDS011;6943;52.368;9.966;2023-09-18T00:12:35;8.73;;;7.77;;
13743;SDS011;6943;52.368;9.966;2023-09-18T00:15:01;7.57;;;6.90;;
13743;SDS011;6943;52.368;9.966;2023-09-18T00:17:26;9.43;;;7.90;;
13743;SDS011;6943;52.368;9.966;2023-09-18T00:19:52;8.77;;;7.07;;
13743;SDS011;6943;52.368;9.966;2023-09-18T00:22:18;8.70;;;7.90;;
13743;SDS011;6943;52.368;9.966;2023-09-18T00:24:44;7.77;;;7.07;;
13743;SDS011;6943;52.368;9.966;2023-09-18T00:27:09;7.83;;;7.07;;
13743;SDS011;6943;52.368;9.966;2023-09-18T00:29:36;8.47;;;7.60;;
13743;SDS011;6943;52.368;9.966;2023-09-18T00:32:01;8.13;;;7.33;;
13743;SDS011;6943;52.368;9.966;2023-09-18T00:34:28;8.67;;;7.80;;
13743;SDS011;6943;52.368;9.966;2023-09-18T00:36:56;9.37;;;8.27;;
13743;SDS011;6943;52.368;9.966;2023-09-18T00:39:21;8.77;;;7.77;;
13743;SDS011;6943;52.368;9.966;2023-09-18T00:41:47;8.57;;;7.70;;
13743;SDS011;6943;52.368;9.966;2023-09-18T00:44:16;8.90;;;8.10;;
13743;SDS011;6943;52.368;9.966;2023-09-18T00:46:42;9.23;;;7.77;;
13743;SDS011;6943;52.368;9.966;2023-09-18T00:49:08;9.17;;;8.00;;
13743;SDS011;6943;52.368;9.966;2023-09-18T00:51:35;9.60;;;8.60;;
13743;SDS011;6943;52.368;9.966;2023-09-18T00:54:00;10.10;;;8.60;;
13743;SDS011;6943;52.368;9.966;2023-09-18T00:56:26;10.70;;;8.03;;
13743;SDS011;6943;52.368;9.966;2023-09-18T00:58:52;9.43;;;8.53;;
13743;SDS011;6943;52.368;9.966;2023-09-18T01:01:18;8.97;;;8.00;;
13743;SDS011;6943;52.368;9.966;2023-09-18T01:03:48;11.43;;;8.60;;
13743;SDS011;6943;52.368;9.966;2023-09-18T01:06:15;8.30;;;7.50;;
13743;SDS011;6943;52.368;9.966;2023-09-18T01:08:40;9.43;;;8.53;;
13743;SDS011;6943;52.368;9.966;2023-09-18T01:11:06;9.20;;;8.30;;
13743;SDS011;6943;52.368;9.966;2023-09-18T01:13:49;9.37;;;8.37;;
13743;SDS011;6943;52.368;9.966;2023-09-18T01:16:35;8.87;;;8.00;;
13743;SDS011;6943;52.368;9.966;2023-09-18T01:19:11;8.90;;;7.87;;
13743;SDS011;6943;52.368;9.966;2023-09-18T01:21:36;9.23;;;8.30;;
13743;SDS011;6943;52.368;9.966;2023-09-18T01:24:02;11.47;;;8.37;;
13743;SDS011;6943;52.368;9.966;2023-09-18T01:26:28;10.57;;;8.57;;
13743;SDS011;6943;52.368;9.966;2023-09-18T01:28:53;9.77;;;8.77;;
13743;SDS011;6943;52.368;9.966;2023-09-18T01:31:19;9.57;;;8.57;;
13743;SDS011;6943;52.368;9.966;2023-09-18T01:33:45;10.10;;;9.07;;
13743;SDS011;6943;52.368;9.966;2023-09-18T01:36:12;9.93;;;8.47;;
13743;SDS011;6943;52.368;9.966;2023-09-18T01:38:40;9.07;;;8.17;;
13743;SDS011;6943;52.368;9.966;2023-09-18T01:41:07;11.53;;;10.03;;
13743;SDS011;6943;52.368;9.966;2023-09-18T01:43:34;12.73;;;9.10;;
13743;SDS011;6943;52.368;9.966;2023-09-18T01:46:00;13.03;;;8.77;;
13743;SDS011;6943;52.368;9.966;2023-09-18T01:48:25;10.20;;;9.10;;
13743;SDS011;6943;52.368;9.966;2023-09-18T01:50:51;10.33;;;9.33;;
13743;SDS011;6943;52.368;9.966;2023-09-18T01:53:17;9.97;;;9.00;;
13743;SDS011;6943;52.368;9.966;2023-09-18T01:55:42;10.77;;;9.30;;
13743;SDS011;6943;52.368;9.966;2023-09-18T01:58:09;11.03;;;9.40;;
13743;SDS011;6943;52.368;9.966;2023-09-18T02:00:34;12.03;;;9.37;;
13743;SDS011;6943;52.368;9.966;2023-09-18T02:03:00;12.03;;;9.60;;
13743;SDS011;6943;52.368;9.966;2023-09-18T02:05:25;11.10;;;9.97;;
13743;SDS011;6943;52.368;9.966;2023-09-18T02:07:51;10.40;;;9.00;;
13743;SDS011;6943;52.368;9.966;2023-09-18T02:10:17;9.83;;;8.80;;
13743;SDS011;6943;52.368;9.966;2023-09-18T02:12:42;10.07;;;9.10;;
13743;SDS011;6943;52.368;9.966;2023-09-18T02:15:08;11.17;;;9.37;;
13743;SDS011;6943;52.368;9.966;2023-09-18T02:17:36;10.33;;;8.77;;
13743;SDS011;6943;52.368;9.966;2023-09-18T02:20:01;9.97;;;8.97;;
13743;SDS011;6943;52.368;9.966;2023-09-18T02:22:31;11.00;;;8.60;;
13743;SDS011;6943;52.368;9.966;2023-09-18T02:24:57;11.53;;;8.17;;
13743;SDS011;6943;52.368;9.966;2023-09-18T02:27:23;9.43;;;8.63;;
13743;SDS011;6943;52.368;9.966;2023-09-18T02:29:49;9.67;;;8.63;;
13743;SDS011;6943;52.368;9.966;2023-09-18T02:32:15;11.17;;;9.40;;
13743;SDS011;6943;52.368;9.966;2023-09-18T02:34:41;12.70;;;9.60;;
13743;SDS011;6943;52.368;9.966;2023-09-18T02:37:06;12.27;;;9.83;;
13743;SDS011;6943;52.368;9.966;2023-09-18T02:39:32;11.27;;;9.57;;
13743;SDS011;6943;52.368;9.966;2023-09-18T02:41:57;12.37;;;10.23;;
13743;SDS011;6943;52.368;9.966;2023-09-18T02:44:23;11.53;;;10.30;;
13743;SDS011;6943;52.368;9.966;2023-09-18T02:46:48;11.30;;;10.20;;
13743;SDS011;6943;52.368;9.966;2023-09-18T02:49:14;15.40;;;10.23;;
13743;SDS011;6943;52.368;9.966;2023-09-18T02:51:39;10.93;;;9.80;;
13743;SDS011;6943;52.368;9.966;2023-09-18T02:54:05;13.40;;;10.93;;
13743;SDS011;6943;52.368;9.966;2023-09-18T02:56:31;14.60;;;10.13;;
13743;SDS011;6943;52.368;9.966;2023-09-18T02:58:56;12.57;;;10.73;;
13743;SDS011;6943;52.368;9.966;2023-09-18T03:01:22;11.97;;;10.47;;
13743;SDS011;6943;52.368;9.966;2023-09-18T03:03:47;11.83;;;10.20;;
13743;SDS011;6943;52.368;9.966;2023-09-18T03:06:13;16.57;;;10.77;;
13743;SDS011;6943;52.368;9.966;2023-09-18T03:08:38;13.63;;;9.93;;
13743;SDS011;6943;52.368;9.966;2023-09-18T03:11:10;11.80;;;10.33;;
13743;SDS011;6943;52.368;9.966;2023-09-18T03:13:36;10.27;;;9.27;;
13743;SDS011;6943;52.368;9.966;2023-09-18T03:16:02;13.17;;;10.23;;
13743;SDS011;6943;52.368;9.966;2023-09-18T03:18:27;10.40;;;9.17;;
13743;SDS011;6943;52.368;9.966;2023-09-18T03:20:53;11.57;;;9.53;;
13743;SDS011;6943;52.368;9.966;2023-09-18T03:23:19;11.53;;;10.17;;
13743;SDS011;6943;52.368;9.966;2023-09-18T03:25:44;11.73;;;9.37;;
13743;SDS011;6943;52.368;9.966;2023-09-18T03:28:10;10.40;;;9.30;;
13743;SDS011;6943;52.368;9.966;2023-09-18T03:30:35;11.67;;;10.20;;
13743;SDS011;6943;52.368;9.966;2023-09-18T03:33:01;12.30;;;9.17;;
13743;SDS011;6943;52.368;9.966;2023-09-18T03:35:28;11.80;;;9.73;;
13743;SDS011;6943;52.368;9.966;2023-09-18T03:37:57;12.07;;;9.40;;
13743;SDS011;6943;52.368;9.966;2023-09-18T03:40:23;11.43;;;9.50;;
13743;SDS011;6943;52.368;9.966;2023-09-18T03:42:48;12.70;;;10.40;;
13743;SDS011;6943;52.368;9.966;2023-09-18T03:45:14;15.10;;;10.10;;
13743;SDS011;6943;52.368;9.966;2023-09-18T03:47:42;11.67;;;9.67;;
13743;SDS011;6943;52.368;9.966;2023-09-18T03:50:08;13.43;;;10.00;;
13743;SDS011;6943;52.368;9.966;2023-09-18T03:52:34;11.33;;;10.07;;
13743;SDS011;6943;52.368;9.966;2023-09-18T03:55:00;11.90;;;10.63;;
13743;SDS011;6943;52.368;9.966;2023-09-18T03:57:26;11.37;;;9.90;;
13743;SDS011;6943;52.368;9.966;2023-09-18T03:59:52;13.07;;;9.43;;
13743;SDS011;6943;52.368;9.966;2023-09-18T04:02:17;11.63;;;9.63;;
13743;SDS011;6943;52.368;9.966;2023-09-18T04:04:43;10.73;;;9.60;;
13743;SDS011;6943;52.368;9.966;2023-09-18T04:07:09;15.73;;;10.27;;
13743;SDS011;6943;52.368;9.966;2023-09-18T04:09:35;12.10;;;10.17;;
13743;SDS011;6943;52.368;9.966;2023-09-18T04:12:02;10.67;;;9.63;;
13743;SDS011;6943;52.368;9.966;2023-09-18T04:14:32;12.73;;;10.07;;
13743;SDS011;6943;52.368;9.966;2023-09-18T04:16:57;12.03;;;9.90;;
13743;SDS011;6943;52.368;9.966;2023-09-18T04:19:24;12.57;;;9.60;;
13743;SDS011;6943;52.368;9.966;2023-09-18T04:21:49;12.63;;;9.40;;
13743;SDS011;6943;52.368;9.966;2023-09-18T04:24:15;10.67;;;9.67;;
13743;SDS011;6943;52.368;9.966;2023-09-18T04:26:40;10.40;;;9.30;;
13743;SDS011;6943;52.368;9.966;2023-09-18T04:29:06;14.63;;;9.93;;
13743;SDS011;6943;52.368;9.966;2023-09-18T04:31:31;11.43;;;9.73;;
13743;SDS011;6943;52.368;9.966;2023-09-18T04:33:57;13.03;;;10.20;;
13743;SDS011;6943;52.368;9.966;2023-09-18T04:36:22;12.57;;;10.80;;
13743;SDS011;6943;52.368;9.966;2023-09-18T04:38:49;13.97;;;10.83;;
13743;SDS011;6943;52.368;9.966;2023-09-18T04:41:15;13.93;;;11.03;;
13743;SDS011;6943;52.368;9.966;2023-09-18T04:43:41;10.93;;;9.67;;
13743;SDS011;6943;52.368;9.966;2023-09-18T04:46:07;15.63;;;9.87;;
13743;SDS011;6943;52.368;9.966;2023-09-18T04:48:33;12.40;;;9.97;;
13743;SDS011;6943;52.368;9.966;2023-09-18T04:50:59;10.67;;;9.67;;
13743;SDS011;6943;52.368;9.966;2023-09-18T04:53:25;11.73;;;10.43;;
13743;SDS011;6943;52.368;9.966;2023-09-18T04:55:52;10.87;;;9.73;;
13743;SDS011;6943;52.368;9.966;2023-09-18T04:58:17;13.53;;;10.33;;
13743;SDS011;6943;52.368;9.966;2023-09-18T05:00:43;10.83;;;9.73;;
13743;SDS011;6943;52.368;9.966;2023-09-18T05:03:09;13.23;;;10.53;;
13743;SDS011;6943;52.368;9.966;2023-09-18T05:05:35;10.13;;;9.13;;
13743;SDS011;6943;52.368;9.966;2023-09-18T05:08:01;11.83;;;10.53;;
13743;SDS011;6943;52.368;9.966;2023-09-18T05:10:32;12.67;;;10.93;;
13743;SDS011;6943;52.368;9.966;2023-09-18T05:13:01;11.97;;;9.30;;
13743;SDS011;6943;52.368;9.966;2023-09-18T05:15:27;9.93;;;8.60;;
13743;SDS011;6943;52.368;9.966;2023-09-18T05:17:56;12.73;;;9.90;;
13743;SDS011;6943;52.368;9.966;2023-09-18T05:20:23;10.87;;;9.40;;
13743;SDS011;6943;52.368;9.966;2023-09-18T05:22:50;11.03;;;9.30;;
13743;SDS011;6943;52.368;9.966;2023-09-18T05:25:19;10.37;;;9.17;;
13743;SDS011;6943;52.368;9.966;2023-09-18T05:27:50;10.60;;;9.20;;
13743;SDS011;6943;52.368;9.966;2023-09-18T05:30:21;11.13;;;9.77;;
13743;SDS011;6943;52.368;9.966;2023-09-18T05:32:52;13.37;;;9.30;;
13743;SDS011;6943;52.368;9.966;2023-09-18T05:35:18;9.33;;;8.43;;
13743;SDS011;6943;52.368;9.966;2023-09-18T05:37:44;9.50;;;8.40;;
13743;SDS011;6943;52.368;9.966;2023-09-18T05:40:10;9.60;;;8.27;;
13743;SDS011;6943;52.368;9.966;2023-09-18T05:42:37;11.63;;;8.60;;
13743;SDS011;6943;52.368;9.966;2023-09-18T05:45:04;10.80;;;8.73;;
13743;SDS011;6943;52.368;9.966;2023-09-18T05:47:33;10.33;;;9.03;;
13743;SDS011;6943;52.368;9.966;2023-09-18T05:50:00;11.10;;;8.67;;
13743;SDS011;6943;52.368;9.966;2023-09-18T05:52:30;9.17;;;8.00;;
13743;SDS011;6943;52.368;9.966;2023-09-18T05:54:55;10.60;;;8.73;;
13743;SDS011;6943;52.368;9.966;2023-09-18T05:57:21;10.47;;;8.97;;
13743;SDS011;6943;52.368;9.966;2023-09-18T05:59:47;9.03;;;8.13;;
13743;SDS011;6943;52.368;9.966;2023-09-18T06:02:13;9.43;;;8.53;;
13743;SDS011;6943;52.368;9.966;2023-09-18T06:04:38;9.53;;;8.43;;
13743;SDS011;6943;52.368;9.966;2023-09-18T06:07:04;10.20;;;9.20;;
13743;SDS011;6943;52.368;9.966;2023-09-18T06:09:29;10.73;;;8.80;;
13743;SDS011;6943;52.368;9.966;2023-09-18T06:11:55;9.27;;;8.20;;
13743;SDS011;6943;52.368;9.966;2023-09-18T06:14:20;9.43;;;8.53;;
13743;SDS011;6943;52.368;9.966;2023-09-18T06:16:47;9.63;;;8.63;;
13743;SDS011;6943;52.368;9.966;2023-09-18T06:19:13;9.83;;;8.13;;
13743;SDS011;6943;52.368;9.966;2023-09-18T06:21:40;11.73;;;8.97;;
13743;SDS011;6943;52.368;9.966;2023-09-18T06:24:05;10.00;;;8.90;;
13743;SDS011;6943;52.368;9.966;2023-09-18T06:26:31;10.00;;;8.70;;
13743;SDS011;6943;52.368;9.966;2023-09-18T06:28:57;10.90;;;8.80;;
13743;SDS011;6943;52.368;9.966;2023-09-18T06:31:22;9.83;;;8.83;;
13743;SDS011;6943;52.368;9.966;2023-09-18T06:33:48;10.37;;;8.33;;
13743;SDS011;6943;52.368;9.966;2023-09-18T06:36:14;11.23;;;8.83;;
13743;SDS011;6943;52.368;9.966;2023-09-18T06:38:39;11.60;;;9.13;;
13743;SDS011;6943;52.368;9.966;2023-09-18T06:41:05;10.23;;;8.50;;
13743;SDS011;6943;52.368;9.966;2023-09-18T06:43:30;9.97;;;8.40;;
13743;SDS011;6943;52.368;9.966;2023-09-18T06:45:56;10.93;;;8.93;;
13743;SDS011;6943;52.368;9.966;2023-09-18T06:48:23;9.57;;;8.27;;
13743;SDS011;6943;52.368;9.966;2023-09-18T06:50:49;12.03;;;9.07;;
13743;SDS011;6943;52.368;9.966;2023-09-18T06:53:14;9.27;;;7.97;;
13743;SDS011;6943;52.368;9.966;2023-09-18T06:55:40;8.77;;;7.97;;
13743;SDS011;6943;52.368;9.966;2023-09-18T06:58:06;8.23;;;7.40;;
13743;SDS011;6943;52.368;9.966;2023-09-18T07:00:32;8.37;;;7.30;;
13743;SDS011;6943;52.368;9.966;2023-09-18T07:02:57;8.80;;;7.83;;
13743;SDS011;6943;52.368;9.966;2023-09-18T07:05:23;8.23;;;7.30;;
13743;SDS011;6943;52.368;9.966;2023-09-18T07:07:48;9.50;;;7.97;;
13743;SDS011;6943;52.368;9.966;2023-09-18T07:10:14;8.87;;;7.93;;
13743;SDS011;6943;52.368;9.966;2023-09-18T07:12:39;7.87;;;7.07;;
13743;SDS011;6943;52.368;9.966;2023-09-18T07:15:05;12.60;;;8.03;;
13743;SDS011;6943;52.368;9.966;2023-09-18T07:17:31;8.40;;;7.60;;
13743;SDS011;6943;52.368;9.966;2023-09-18T07:20:00;9.20;;;7.53;;
13743;SDS011;6943;52.368;9.966;2023-09-18T07:22:26;11.10;;;7.87;;
13743;SDS011;6943;52.368;9.966;2023-09-18T07:24:51;8.83;;;7.43;;
13743;SDS011;6943;52.368;9.966;2023-09-18T07:27:17;9.50;;;7.17;;
13743;SDS011;6943;52.368;9.966;2023-09-18T07:29:42;8.90;;;8.03;;
13743;SDS011;6943;52.368;9.966;2023-09-18T07:32:08;9.00;;;7.43;;
13743;SDS011;6943;52.368;9.966;2023-09-18T07:34:34;7.83;;;6.80;;
13743;SDS011;6943;52.368;9.966;2023-09-18T07:37:00;6.63;;;6.00;;
13743;SDS011;6943;52.368;9.966;2023-09-18T07:39:25;7.90;;;7.10;;
13743;SDS011;6943;52.368;9.966;2023-09-18T07:41:51;7.43;;;6.60;;
13743;SDS011;6943;52.368;9.966;2023-09-18T07:44:20;7.13;;;6.33;;
13743;SDS011;6943;52.368;9.966;2023-09-18T07:46:46;7.07;;;6.40;;
13743;SDS011;6943;52.368;9.966;2023-09-18T07:49:12;5.97;;;5.37;;
13743;SDS011;6943;52.368;9.966;2023-09-18T07:51:39;6.17;;;5.47;;
13743;SDS011;6943;52.368;9.966;2023-09-18T07:54:04;5.93;;;5.37;;
13743;SDS011;6943;52.368;9.966;2023-09-18T07:56:31;7.77;;;5.80;;
13743;SDS011;6943;52.368;9.966;2023-09-18T07:58:59;6.20;;;5.60;;
13743;SDS011;6943;52.368;9.966;2023-09-18T08:01:24;7.03;;;5.80;;
13743;SDS011;6943;52.368;9.966;2023-09-18T08:03:50;7.30;;;6.20;;
13743;SDS011;6943;52.368;9.966;2023-09-18T08:06:16;6.93;;;5.33;;
13743;SDS011;6943;52.368;9.966;2023-09-18T08:08:44;5.33;;;4.83;;
13743;SDS011;6943;52.368;9.966;2023-09-18T08:11:09;4.17;;;3.77;;
13743;SDS011;6943;52.368;9.966;2023-09-18T08:13:35;4.45;;;4.05;;
13743;SDS011;6943;52.368;9.966;2023-09-18T08:16:01;5.82;;;4.18;;
13743;SDS011;6943;52.368;9.966;2023-09-18T08:18:28;4.45;;;4.03;;
13743;SDS011;6943;52.368;9.966;2023-09-18T08:20:54;6.55;;;4.68;;
13743;SDS011;6943;52.368;9.966;2023-09-18T08:23:22;6.18;;;4.20;;
13743;SDS011;6943;52.368;9.966;2023-09-18T08:25:48;9.23;;;4.90;;
13743;SDS011;6943;52.368;9.966;2023-09-18T08:28:16;5.43;;;4.40;;
13743;SDS011;6943;52.368;9.966;2023-09-18T08:30:42;7.82;;;4.78;;
13743;SDS011;6943;52.368;9.966;2023-09-18T08:33:12;5.13;;;4.40;;
13743;SDS011;6943;52.368;9.966;2023-09-18T08:35:38;5.78;;;4.60;;
13743;SDS011;6943;52.368;9.966;2023-09-18T08:38:04;4.68;;;4.10;;
13743;SDS011;6943;52.368;9.966;2023-09-18T08:40:30;7.50;;;4.15;;
13743;SDS011;6943;52.368;9.966;2023-09-18T08:42:55;8.27;;;5.00;;
13743;SDS011;6943;52.368;9.966;2023-09-18T08:45:31;6.93;;;4.50;;
13743;SDS011;6943;52.368;9.966;2023-09-18T08:48:03;6.65;;;4.53;;
13743;SDS011;6943;52.368;9.966;2023-09-18T08:50:29;6.05;;;4.55;;
13743;SDS011;6943;52.368;9.966;2023-09-18T08:52:55;5.78;;;4.50;;
13743;SDS011;6943;52.368;9.966;2023-09-18T08:55:21;7.80;;;4.57;;
13743;SDS011;6943;52.368;9.966;2023-09-18T08:57:48;6.38;;;3.97;;
13743;SDS011;6943;52.368;9.966;2023-09-18T09:00:14;8.27;;;4.30;;
13743;SDS011;6943;52.368;9.966;2023-09-18T09:02:45;8.52;;;4.28;;
13743;SDS011;6943;52.368;9.966;2023-09-18T09:05:13;6.50;;;4.35;;
13743;SDS011;6943;52.368;9.966;2023-09-18T09:07:39;8.30;;;4.65;;
13743;SDS011;6943;52.368;9.966;2023-09-18T09:10:05;7.43;;;4.32;;
13743;SDS011;6943;52.368;9.966;2023-09-18T09:15:14;7.18;;;3.95;;
13743;SDS011;6943;52.368;9.966;2023-09-18T09:17:41;6.47;;;4.40;;
13743;SDS011;6943;52.368;9.966;2023-09-18T09:20:08;5.90;;;3.92;;
13743;SDS011;6943;52.368;9.966;2023-09-18T09:22:37;8.40;;;3.88;;
13743;SDS011;6943;52.368;9.966;2023-09-18T09:25:05;7.30;;;3.65;;
13743;SDS011;6943;52.368;9.966;2023-09-18T09:27:47;6.43;;;4.40;;
13743;SDS011;6943;52.368;9.966;2023-09-18T09:30:18;8.18;;;3.88;;
13743;SDS011;6943;52.368;9.966;2023-09-18T09:32:49;7.80;;;3.67;;
13743;SDS011;6943;52.368;9.966;2023-09-18T09:35:22;8.02;;;4.25;;
13743;SDS011;6943;52.368;9.966;2023-09-18T09:37:52;5.95;;;3.92;;
13743;SDS011;6943;52.368;9.966;2023-09-18T09:40:20;8.77;;;3.20;;
13743;SDS011;6943;52.368;9.966;2023-09-18T09:42:47;8.50;;;3.92;;
13743;SDS011;6943;52.368;9.966;2023-09-18T09:45:16;7.45;;;3.63;;
13743;SDS011;6943;52.368;9.966;2023-09-18T09:47:42;13.80;;;3.80;;
13743;SDS011;6943;52.368;9.966;2023-09-18T09:50:09;8.98;;;3.58;;
13743;SDS011;6943;52.368;9.966;2023-09-18T09:52:35;7.03;;;2.92;;
13743;SDS011;6943;52.368;9.966;2023-09-18T09:55:02;5.03;;;3.05;;
13743;SDS011;6943;52.368;9.966;2023-09-18T09:57:48;5.25;;;2.92;;
13743;SDS011;6943;52.368;9.966;2023-09-18T10:00:19;8.27;;;3.80;;
13743;SDS011;6943;52.368;9.966;2023-09-18T10:02:59;9.40;;;3.13;;
13743;SDS011;6943;52.368;9.966;2023-09-18T10:05:26;9.55;;;3.47;;
13743;SDS011;6943;52.368;9.966;2023-09-18T10:07:56;6.07;;;3.10;;
13743;SDS011;6943;52.368;9.966;2023-09-18T10:10:24;4.78;;;3.15;;
13743;SDS011;6943;52.368;9.966;2023-09-18T10:12:53;6.25;;;3.25;;
13743;SDS011;6943;52.368;9.966;2023-09-18T10:15:22;7.28;;;3.15;;
13743;SDS011;6943;52.368;9.966;2023-09-18T10:17:49;7.60;;;2.90;;
13743;SDS011;6943;52.368;9.966;2023-09-18T10:20:18;5.20;;;3.13;;
13743;SDS011;6943;52.368;9.966;2023-09-18T10:22:48;6.45;;;3.03;;
13743;SDS011;6943;52.368;9.966;2023-09-18T10:25:18;3.85;;;2.78;;
13743;SDS011;6943;52.368;9.966;2023-09-18T10:27:47;6.63;;;2.95;;
13743;SDS011;6943;52.368;9.966;2023-09-18T10:30:15;8.45;;;3.00;;
13743;SDS011;6943;52.368;9.966;2023-09-18T10:32:44;6.80;;;3.03;;
13743;SDS011;6943;52.368;9.966;2023-09-18T10:35:11;5.10;;;2.90;;
13743;SDS011;6943;52.368;9.966;2023-09-18T10:37:40;6.85;;;2.90;;
13743;SDS011;6943;52.368;9.966;2023-09-18T10:40:10;9.02;;;3.15;;
13743;SDS011;6943;52.368;9.966;2023-09-18T10:42:37;4.85;;;2.88;;
13743;SDS011;6943;52.368;9.966;2023-09-18T10:45:09;8.23;;;3.13;;
13743;SDS011;6943;52.368;9.966;2023-09-18T10:47:37;3.92;;;2.88;;
13743;SDS011;6943;52.368;9.966;2023-09-18T10:50:04;7.47;;;2.92;;
13743;SDS011;6943;52.368;9.966;2023-09-18T10:52:32;6.90;;;2.90;;
13743;SDS011;6943;52.368;9.966;2023-09-18T10:55:00;5.25;;;2.75;;
13743;SDS011;6943;52.368;9.966;2023-09-18T10:57:26;10.10;;;3.42;;
13743;SDS011;6943;52.368;9.966;2023-09-18T10:59:51;7.50;;;3.20;;
13743;SDS011;6943;52.368;9.966;2023-09-18T11:02:19;4.55;;;2.95;;
13743;SDS011;6943;52.368;9.966;2023-09-18T11:04:46;6.07;;;2.80;;
13743;SDS011;6943;52.368;9.966;2023-09-18T11:07:19;5.57;;;2.97;;
13743;SDS011;6943;52.368;9.966;2023-09-18T11:09:48;7.65;;;2.65;;
13743;SDS011;6943;52.368;9.966;2023-09-18T11:12:15;4.10;;;2.55;;
13743;SDS011;6943;52.368;9.966;2023-09-18T11:17:38;5.55;;;2.70;;
13743;SDS011;6943;52.368;9.966;2023-09-18T11:20:25;3.90;;;2.65;;
13743;SDS011;6943;52.368;9.966;2023-09-18T11:25:35;5.80;;;2.65;;
13743;SDS011;6943;52.368;9.966;2023-09-18T11:28:04;6.50;;;2.92;;
13743;SDS011;6943;52.368;9.966;2023-09-18T11:30:36;2.80;;;2.42;;
13743;SDS011;6943;52.368;9.966;2023-09-18T11:33:06;6.20;;;2.65;;
13743;SDS011;6943;52.368;9.966;2023-09-18T11:35:32;4.65;;;2.70;;
13743;SDS011;6943;52.368;9.966;2023-09-18T11:38:05;6.55;;;2.45;;
13743;SDS011;6943;52.368;9.966;2023-09-18T11:40:33;7.75;;;3.05;;
13743;SDS011;6943;52.368;9.966;2023-09-18T11:43:26;4.90;;;2.28;;
13743;SDS011;6943;52.368;9.966;2023-09-18T11:45:54;8.00;;;2.88;;
13743;SDS011;6943;52.368;9.966;2023-09-18T11:48:22;5.72;;;2.53;;
13743;SDS011;6943;52.368;9.966;2023-09-18T11:50:49;6.13;;;2.55;;
13743;SDS011;6943;52.368;9.966;2023-09-18T11:53:17;6.03;;;2.53;;
13743;SDS011;6943;52.368;9.966;2023-09-18T11:55:43;4.75;;;2.42;;
13743;SDS011;6943;52.368;9.966;2023-09-18T11:58:09;3.28;;;2.40;;
13743;SDS011;6943;52.368;9.966;2023-09-18T12:00:35;4.97;;;2.50;;
13743;SDS011;6943;52.368;9.966;2023-09-18T12:03:20;5.28;;;2.63;;
13743;SDS011;6943;52.368;9.966;2023-09-18T12:05:57;6.15;;;2.70;;
13743;SDS011;6943;52.368;9.966;2023-09-18T12:08:25;5.63;;;3.03;;
13743;SDS011;6943;52.368;9.966;2023-09-18T12:10:54;4.78;;;2.53;;
13743;SDS011;6943;52.368;9.966;2023-09-18T12:13:20;4.32;;;2.33;;
13743;SDS011;6943;52.368;9.966;2023-09-18T12:15:47;6.47;;;2.40;;
13743;SDS011;6943;52.368;9.966;2023-09-18T12:18:14;5.90;;;3.08;;
13743;SDS011;6943;52.368;9.966;2023-09-18T12:20:46;4.20;;;2.50;;
13743;SDS011;6943;52.368;9.966;2023-09-18T12:23:13;4.30;;;2.45;;
13743;SDS011;6943;52.368;9.966;2023-09-18T12:25:40;9.02;;;2.83;;
13743;SDS011;6943;52.368;9.966;2023-09-18T12:28:06;5.03;;;2.88;;
13743;SDS011;6943;52.368;9.966;2023-09-18T12:30:33;7.80;;;2.65;;
13743;SDS011;6943;52.368;9.966;2023-09-18T12:32:59;5.13;;;2.60;;
13743;SDS011;6943;52.368;9.966;2023-09-18T12:35:26;4.32;;;2.78;;
13743;SDS011;6943;52.368;9.966;2023-09-18T12:37:55;5.53;;;2.55;;
13743;SDS011;6943;52.368;9.966;2023-09-18T12:40:22;6.55;;;2.72;;
13743;SDS011;6943;52.368;9.966;2023-09-18T12:42:51;4.43;;;2.60;;
13743;SDS011;6943;52.368;9.966;2023-09-18T12:45:19;6.60;;;2.00;;
13743;SDS011;6943;52.368;9.966;2023-09-18T12:47:45;3.53;;;2.40;;
13743;SDS011;6943;52.368;9.966;2023-09-18T12:50:12;5.72;;;2.85;;
13743;SDS011;6943;52.368;9.966;2023-09-18T12:52:38;3.67;;;2.33;;
13743;SDS011;6943;52.368;9.966;2023-09-18T12:55:04;5.80;;;2.60;;
13743;SDS011;6943;52.368;9.966;2023-09-18T12:57:31;4.07;;;2.30;;
13743;SDS011;6943;52.368;9.966;2023-09-18T12:59:58;5.15;;;2.53;;
13743;SDS011;6943;52.368;9.966;2023-09-18T13:02:23;4.60;;;2.10;;
13743;SDS011;6943;52.368;9.966;2023-09-18T13:04:53;6.13;;;2.47;;
13743;SDS011;6943;52.368;9.966;2023-09-18T13:07:21;8.30;;;2.35;;
13743;SDS011;6943;52.368;9.966;2023-09-18T13:10:04;5.38;;;2.60;;
13743;SDS011;6943;52.368;9.966;2023-09-18T13:12:41;6.03;;;2.55;;
13743;SDS011;6943;52.368;9.966;2023-09-18T13:15:07;5.22;;;2.80;;
13743;SDS011;6943;52.368;9.966;2023-09-18T13:17:43;6.80;;;2.92;;
13743;SDS011;6943;52.368;9.966;2023-09-18T13:20:14;7.32;;;2.92;;
13743;SDS011;6943;52.368;9.966;2023-09-18T13:22:41;6.90;;;2.90;;
13743;SDS011;6943;52.368;9.966;2023-09-18T13:25:08;3.38;;;2.20;;
13743;SDS011;6943;52.368;9.966;2023-09-18T13:27:35;6.35;;;2.80;;
13743;SDS011;6943;52.368;9.966;2023-09-18T13:30:02;5.63;;;2.72;;
13743;SDS011;6943;52.368;9.966;2023-09-18T13:32:32;4.65;;;2.38;;
13743;SDS011;6943;52.368;9.966;2023-09-18T13:35:02;4.78;;;2.40;;
13743;SDS011;6943;52.368;9.966;2023-09-18T13:37:31;4.30;;;2.10;;
13743;SDS011;6943;52.368;9.966;2023-09-18T13:39:57;5.80;;;2.55;;
13743;SDS011;6943;52.368;9.966;2023-09-18T13:42:26;4.38;;;2.60;;
13743;SDS011;6943;52.368;9.966;2023-09-18T13:44:52;5.75;;;2.47;;
13743;SDS011;6943;52.368;9.966;2023-09-18T13:47:18;2.65;;;2.30;;
13743;SDS011;6943;52.368;9.966;2023-09-18T13:49:44;4.30;;;2.35;;
13743;SDS011;6943;52.368;9.966;2023-09-18T13:52:11;6.40;;;2.42;;
13743;SDS011;6943;52.368;9.966;2023-09-18T13:54:37;5.95;;;2.90;;
13743;SDS011;6943;52.368;9.966;2023-09-18T13:57:02;3.25;;;2.40;;
13743;SDS011;6943;52.368;9.966;2023-09-18T13:59:30;4.68;;;2.25;;
13743;SDS011;6943;52.368;9.966;2023-09-18T14:01:56;5.95;;;2.58;;
13743;SDS011;6943;52.368;9.966;2023-09-18T14:04:22;6.22;;;2.78;;
13743;SDS011;6943;52.368;9.966;2023-09-18T14:06:47;4.80;;;2.22;;
13743;SDS011;6943;52.368;9.966;2023-09-18T14:09:13;5.47;;;2.30;;
13743;SDS011;6943;52.368;9.966;2023-09-18T14:11:39;5.22;;;2.22;;
13743;SDS011;6943;52.368;9.966;2023-09-18T14:14:05;3.35;;;2.35;;
13743;SDS011;6943;52.368;9.966;2023-09-18T14:16:30;5.78;;;2.83;;
13743;SDS011;6943;52.368;9.966;2023-09-18T14:18:58;4.50;;;2.35;;
13743;SDS011;6943;52.368;9.966;2023-09-18T14:21:24;4.47;;;2.40;;
13743;SDS011;6943;52.368;9.966;2023-09-18T14:23:50;5.93;;;2.97;;
13743;SDS011;6943;52.368;9.966;2023-09-18T14:26:15;5.57;;;2.45;;
13743;SDS011;6943;52.368;9.966;2023-09-18T14:28:41;6.70;;;2.30;;
13743;SDS011;6943;52.368;9.966;2023-09-18T14:31:09;6.85;;;2.97;;
13743;SDS011;6943;52.368;9.966;2023-09-18T14:33:35;4.40;;;2.47;;
13743;SDS011;6943;52.368;9.966;2023-09-18T14:36:01;3.80;;;2.20;;
13743;SDS011;6943;52.368;9.966;2023-09-18T14:38:28;3.13;;;2.17;;
13743;SDS011;6943;52.368;9.966;2023-09-18T14:40:54;3.58;;;2.03;;
13743;SDS011;6943;52.368;9.966;2023-09-18T14:43:25;6.05;;;2.53;;
13743;SDS011;6943;52.368;9.966;2023-09-18T14:45:51;4.10;;;2.20;;
13743;SDS011;6943;52.368;9.966;2023-09-18T14:48:18;5.78;;;2.20;;
13743;SDS011;6943;52.368;9.966;2023-09-18T14:50:43;5.28;;;2.00;;
13743;SDS011;6943;52.368;9.966;2023-09-18T14:53:09;4.22;;;2.20;;
13743;SDS011;6943;52.368;9.966;2023-09-18T14:55:34;3.65;;;1.75;;
13743;SDS011;6943;52.368;9.966;2023-09-18T14:58:00;3.22;;;2.22;;
13743;SDS011;6943;52.368;9.966;2023-09-18T15:00:25;3.67;;;1.80;;
13743;SDS011;6943;52.368;9.966;2023-09-18T15:02:51;5.60;;;2.08;;